sensor_id;sensor_type;location;lat;lon;timestamp;temperature;humidity
79049;DHT22;68680;50.764;6.120;2023-04-22T00:01:46;7.50;95.00
79049;DHT22;68680;50.764;6.120;2023-04-22T00:04:12;7.50;95.00
79049;DHT22;68680;50.764;6.120;2023-04-22T00:06:38;7.50;94.70
79049;DHT22;68680;50.764;6.120;2023-04-22T00:09:03;7.40;94.60
79049;DHT22;68680;50.764;6.120;2023-04-22T00:11:29;7.30;94.90
79049;DHT22;68680;50.764;6.120;2023-04-22T00:13:54;7.40;95.10
79049;DHT22;68680;50.764;6.120;2023-04-22T00:16:20;7.30;95.10
79049;DHT22;68680;50.764;6.120;2023-04-22T00:18:47;7.40;95.10
79049;DHT22;68680;50.764;6.120;2023-04-22T00:21:13;7.40;95.00
79049;DHT22;68680;50.764;6.120;2023-04-22T00:23:38;7.40;94.70
79049;DHT22;68680;50.764;6.120;2023-04-22T00:26:04;7.40;94.60
79049;DHT22;68680;50.764;6.120;2023-04-22T00:28:29;7.40;94.90
79049;DHT22;68680;50.764;6.120;2023-04-22T00:30:55;7.40;95.00
79049;DHT22;68680;50.764;6.120;2023-04-22T00:33:21;7.40;94.60
79049;DHT22;68680;50.764;6.120;2023-04-22T00:35:48;7.40;94.70
79049;DHT22;68680;50.764;6.120;2023-04-22T00:38:13;7.40;95.00
79049;DHT22;68680;50.764;6.120;2023-04-22T00:40:39;7.40;95.00
79049;DHT22;68680;50.764;6.120;2023-04-22T00:43:05;7.30;95.00
79049;DHT22;68680;50.764;6.120;2023-04-22T00:45:32;7.30;94.90
79049;DHT22;68680;50.764;6.120;2023-04-22T00:47:58;7.30;94.90
79049;DHT22;68680;50.764;6.120;2023-04-22T00:50:24;7.30;95.10
79049;DHT22;68680;50.764;6.120;2023-04-22T00:52:51;7.30;95.20
79049;DHT22;68680;50.764;6.120;2023-04-22T00:55:17;7.40;95.10
79049;DHT22;68680;50.764;6.120;2023-04-22T00:57:42;7.40;95.20
79049;DHT22;68680;50.764;6.120;2023-04-22T01:00:08;7.40;95.30
79049;DHT22;68680;50.764;6.120;2023-04-22T01:02:35;7.40;95.20
79049;DHT22;68680;50.764;6.120;2023-04-22T01:05:02;7.40;95.30
79049;DHT22;68680;50.764;6.120;2023-04-22T01:07:28;7.40;95.10
79049;DHT22;68680;50.764;6.120;2023-04-22T01:09:55;7.40;95.20
79049;DHT22;68680;50.764;6.120;2023-04-22T01:12:21;7.40;95.30
79049;DHT22;68680;50.764;6.120;2023-04-22T01:14:46;7.40;95.20
79049;DHT22;68680;50.764;6.120;2023-04-22T01:17:12;7.40;95.10
79049;DHT22;68680;50.764;6.120;2023-04-22T01:19:39;7.40;95.40
79049;DHT22;68680;50.764;6.120;2023-04-22T01:22:05;7.40;95.50
79049;DHT22;68680;50.764;6.120;2023-04-22T01:24:33;7.50;95.60
79049;DHT22;68680;50.764;6.120;2023-04-22T01:26:59;7.50;95.30
79049;DHT22;68680;50.764;6.120;2023-04-22T01:29:25;7.50;95.30
79049;DHT22;68680;50.764;6.120;2023-04-22T01:31:51;7.40;95.20
79049;DHT22;68680;50.764;6.120;2023-04-22T01:34:17;7.50;95.00
79049;DHT22;68680;50.764;6.120;2023-04-22T01:36:43;7.50;95.00
79049;DHT22;68680;50.764;6.120;2023-04-22T01:39:08;7.50;95.10
79049;DHT22;68680;50.764;6.120;2023-04-22T01:41:35;7.50;95.20
79049;DHT22;68680;50.764;6.120;2023-04-22T01:44:01;7.60;95.30
79049;DHT22;68680;50.764;6.120;2023-04-22T01:46:27;7.60;95.40
79049;DHT22;68680;50.764;6.120;2023-04-22T01:48:53;7.60;95.40
79049;DHT22;68680;50.764;6.120;2023-04-22T01:51:19;7.60;95.10
79049;DHT22;68680;50.764;6.120;2023-04-22T01:53:45;7.60;94.80
79049;DHT22;68680;50.764;6.120;2023-04-22T01:56:11;7.60;94.90
79049;DHT22;68680;50.764;6.120;2023-04-22T01:58:39;7.50;94.90
79049;DHT22;68680;50.764;6.120;2023-04-22T02:01:05;7.50;95.00
79049;DHT22;68680;50.764;6.120;2023-04-22T02:03:31;7.40;95.10
79049;DHT22;68680;50.764;6.120;2023-04-22T02:05:56;7.40;95.20
79049;DHT22;68680;50.764;6.120;2023-04-22T02:08:22;7.40;95.40
79049;DHT22;68680;50.764;6.120;2023-04-22T02:10:48;7.30;95.30
79049;DHT22;68680;50.764;6.120;2023-04-22T02:13:13;7.30;95.40
79049;DHT22;68680;50.764;6.120;2023-04-22T02:15:40;7.30;95.50
79049;DHT22;68680;50.764;6.120;2023-04-22T02:18:06;7.30;95.50
79049;DHT22;68680;50.764;6.120;2023-04-22T02:20:32;7.30;95.60
79049;DHT22;68680;50.764;6.120;2023-04-22T02:22:58;7.40;95.80
79049;DHT22;68680;50.764;6.120;2023-04-22T02:25:24;7.50;95.70
79049;DHT22;68680;50.764;6.120;2023-04-22T02:27:49;7.50;95.80
79049;DHT22;68680;50.764;6.120;2023-04-22T02:30:15;7.50;95.60
79049;DHT22;68680;50.764;6.120;2023-04-22T02:32:42;7.50;95.40
79049;DHT22;68680;50.764;6.120;2023-04-22T02:35:08;7.50;95.50
79049;DHT22;68680;50.764;6.120;2023-04-22T02:37:34;7.40;95.30
79049;DHT22;68680;50.764;6.120;2023-04-22T02:39:59;7.40;95.50
79049;DHT22;68680;50.764;6.120;2023-04-22T02:42:25;7.40;95.50
79049;DHT22;68680;50.764;6.120;2023-04-22T02:44:51;7.40;95.40
79049;DHT22;68680;50.764;6.120;2023-04-22T02:47:16;7.40;95.70
79049;DHT22;68680;50.764;6.120;2023-04-22T02:49:43;7.40;95.50
79049;DHT22;68680;50.764;6.120;2023-04-22T02:52:09;7.40;95.40
79049;DHT22;68680;50.764;6.120;2023-04-22T02:54:35;7.40;95.50
79049;DHT22;68680;50.764;6.120;2023-04-22T02:57:00;7.40;95.50
79049;DHT22;68680;50.764;6.120;2023-04-22T02:59:26;7.40;95.60
79049;DHT22;68680;50.764;6.120;2023-04-22T03:01:51;7.50;95.50
79049;DHT22;68680;50.764;6.120;2023-04-22T03:04:17;7.50;95.50
79049;DHT22;68680;50.764;6.120;2023-04-22T03:06:44;7.60;95.60
79049;DHT22;68680;50.764;6.120;2023-04-22T03:09:10;7.50;95.40
79049;DHT22;68680;50.764;6.120;2023-04-22T03:11:35;7.50;95.60
79049;DHT22;68680;50.764;6.120;2023-04-22T03:14:01;7.50;95.60
79049;DHT22;68680;50.764;6.120;2023-04-22T03:16:26;7.50;95.70
79049;DHT22;68680;50.764;6.120;2023-04-22T03:18:52;7.60;95.70
79049;DHT22;68680;50.764;6.120;2023-04-22T03:21:17;7.60;95.30
79049;DHT22;68680;50.764;6.120;2023-04-22T03:23:44;7.60;95.50
79049;DHT22;68680;50.764;6.120;2023-04-22T03:26:10;7.60;95.60
79049;DHT22;68680;50.764;6.120;2023-04-22T03:28:36;7.60;95.50
79049;DHT22;68680;50.764;6.120;2023-04-22T03:31:01;7.60;95.60
79049;DHT22;68680;50.764;6.120;2023-04-22T03:33:27;7.60;95.70
79049;DHT22;68680;50.764;6.120;2023-04-22T03:35:52;7.60;95.90
79049;DHT22;68680;50.764;6.120;2023-04-22T03:38:18;7.70;96.10
79049;DHT22;68680;50.764;6.120;2023-04-22T03:40:45;7.70;96.10
79049;DHT22;68680;50.764;6.120;2023-04-22T03:43:11;7.80;96.10
79049;DHT22;68680;50.764;6.120;2023-04-22T03:45:36;7.80;96.00
79049;DHT22;68680;50.764;6.120;2023-04-22T03:48:02;7.90;95.90
79049;DHT22;68680;50.764;6.120;2023-04-22T03:50:28;7.90;96.00
79049;DHT22;68680;50.764;6.120;2023-04-22T03:52:54;7.90;95.80
79049;DHT22;68680;50.764;6.120;2023-04-22T03:55:19;7.90;95.80
79049;DHT22;68680;50.764;6.120;2023-04-22T03:57:46;7.90;95.70
79049;DHT22;68680;50.764;6.120;2023-04-22T04:00:12;7.90;95.80
79049;DHT22;68680;50.764;6.120;2023-04-22T04:02:38;7.90;95.80
79049;DHT22;68680;50.764;6.120;2023-04-22T04:05:04;7.90;95.90
79049;DHT22;68680;50.764;6.120;2023-04-22T04:07:30;7.90;95.80
79049;DHT22;68680;50.764;6.120;2023-04-22T04:09:55;7.90;95.80
79049;DHT22;68680;50.764;6.120;2023-04-22T04:12:21;8.00;96.00
79049;DHT22;68680;50.764;6.120;2023-04-22T04:14:48;8.00;95.80
79049;DHT22;68680;50.764;6.120;2023-04-22T04:17:14;8.00;95.70
79049;DHT22;68680;50.764;6.120;2023-04-22T04:19:40;8.00;95.60
79049;DHT22;68680;50.764;6.120;2023-04-22T04:22:05;8.00;95.60
79049;DHT22;68680;50.764;6.120;2023-04-22T04:24:31;8.00;95.60
79049;DHT22;68680;50.764;6.120;2023-04-22T04:26:56;7.90;95.70
79049;DHT22;68680;50.764;6.120;2023-04-22T04:29:22;7.90;95.70
79049;DHT22;68680;50.764;6.120;2023-04-22T04:31:49;7.90;95.80
79049;DHT22;68680;50.764;6.120;2023-04-22T04:34:14;7.90;95.90
79049;DHT22;68680;50.764;6.120;2023-04-22T04:36:40;7.90;96.00
79049;DHT22;68680;50.764;6.120;2023-04-22T04:39:06;7.90;96.00
79049;DHT22;68680;50.764;6.120;2023-04-22T04:41:31;7.90;96.10
79049;DHT22;68680;50.764;6.120;2023-04-22T04:43:57;8.00;96.20
79049;DHT22;68680;50.764;6.120;2023-04-22T04:46:23;8.00;96.10
79049;DHT22;68680;50.764;6.120;2023-04-22T04:48:50;8.10;96.10
79049;DHT22;68680;50.764;6.120;2023-04-22T04:51:15;8.10;95.90
79049;DHT22;68680;50.764;6.120;2023-04-22T04:53:41;8.20;95.80
79049;DHT22;68680;50.764;6.120;2023-04-22T04:56:07;8.20;95.70
79049;DHT22;68680;50.764;6.120;2023-04-22T04:58:32;8.20;95.80
79049;DHT22;68680;50.764;6.120;2023-04-22T05:00:58;8.30;95.60
79049;DHT22;68680;50.764;6.120;2023-04-22T05:03:23;8.30;95.40
79049;DHT22;68680;50.764;6.120;2023-04-22T05:05:50;8.30;95.20
79049;DHT22;68680;50.764;6.120;2023-04-22T05:08:16;8.20;95.20
79049;DHT22;68680;50.764;6.120;2023-04-22T05:10:42;8.20;95.20
79049;DHT22;68680;50.764;6.120;2023-04-22T05:13:07;8.20;95.20
79049;DHT22;68680;50.764;6.120;2023-04-22T05:15:33;8.30;95.40
79049;DHT22;68680;50.764;6.120;2023-04-22T05:17:59;8.40;95.50
79049;DHT22;68680;50.764;6.120;2023-04-22T05:20:25;8.40;95.50
79049;DHT22;68680;50.764;6.120;2023-04-22T05:22:52;8.50;95.30
79049;DHT22;68680;50.764;6.120;2023-04-22T05:25:17;8.60;95.50
79049;DHT22;68680;50.764;6.120;2023-04-22T05:27:43;8.70;95.50
79049;DHT22;68680;50.764;6.120;2023-04-22T05:30:09;8.80;95.50
79049;DHT22;68680;50.764;6.120;2023-04-22T05:32:35;8.80;95.60
79049;DHT22;68680;50.764;6.120;2023-04-22T05:35:00;8.90;95.40
79049;DHT22;68680;50.764;6.120;2023-04-22T05:37:27;9.10;95.20
79049;DHT22;68680;50.764;6.120;2023-04-22T05:39:54;9.20;94.60
79049;DHT22;68680;50.764;6.120;2023-04-22T05:42:19;9.40;94.30
79049;DHT22;68680;50.764;6.120;2023-04-22T05:44:45;9.60;93.70
79049;DHT22;68680;50.764;6.120;2023-04-22T05:47:11;9.90;92.80
79049;DHT22;68680;50.764;6.120;2023-04-22T05:49:37;10.10;92.30
79049;DHT22;68680;50.764;6.120;2023-04-22T05:52:03;10.50;90.70
79049;DHT22;68680;50.764;6.120;2023-04-22T05:54:28;10.80;89.90
79049;DHT22;68680;50.764;6.120;2023-04-22T05:56:55;11.10;86.90
79049;DHT22;68680;50.764;6.120;2023-04-22T05:59:21;11.30;87.00
79049;DHT22;68680;50.764;6.120;2023-04-22T06:01:47;11.40;85.90
79049;DHT22;68680;50.764;6.120;2023-04-22T06:04:12;11.50;85.10
79049;DHT22;68680;50.764;6.120;2023-04-22T06:06:38;11.50;85.30
79049;DHT22;68680;50.764;6.120;2023-04-22T06:09:04;11.70;84.50
79049;DHT22;68680;50.764;6.120;2023-04-22T06:11:30;11.70;84.20
79049;DHT22;68680;50.764;6.120;2023-04-22T06:13:56;11.80;83.60
79049;DHT22;68680;50.764;6.120;2023-04-22T06:16:22;11.80;83.70
79049;DHT22;68680;50.764;6.120;2023-04-22T06:18:48;11.90;81.80
79049;DHT22;68680;50.764;6.120;2023-04-22T06:21:13;12.00;82.30
79049;DHT22;68680;50.764;6.120;2023-04-22T06:23:39;12.30;81.10
79049;DHT22;68680;50.764;6.120;2023-04-22T06:26:06;12.40;80.00
79049;DHT22;68680;50.764;6.120;2023-04-22T06:28:31;12.50;79.40
79049;DHT22;68680;50.764;6.120;2023-04-22T06:30:58;12.60;78.30
79049;DHT22;68680;50.764;6.120;2023-04-22T06:33:24;12.60;77.80
79049;DHT22;68680;50.764;6.120;2023-04-22T06:35:49;12.60;77.00
79049;DHT22;68680;50.764;6.120;2023-04-22T06:38:15;12.70;77.40
79049;DHT22;68680;50.764;6.120;2023-04-22T06:40:41;12.80;76.10
79049;DHT22;68680;50.764;6.120;2023-04-22T06:43:06;12.80;77.40
79049;DHT22;68680;50.764;6.120;2023-04-22T06:45:32;12.80;76.90
79049;DHT22;68680;50.764;6.120;2023-04-22T06:47:59;13.00;75.90
79049;DHT22;68680;50.764;6.120;2023-04-22T06:50:25;13.00;75.90
79049;DHT22;68680;50.764;6.120;2023-04-22T06:52:50;13.00;76.20
79049;DHT22;68680;50.764;6.120;2023-04-22T06:55:16;13.00;76.80
79049;DHT22;68680;50.764;6.120;2023-04-22T06:57:42;13.20;76.50
79049;DHT22;68680;50.764;6.120;2023-04-22T07:00:08;13.30;75.50
79049;DHT22;68680;50.764;6.120;2023-04-22T07:02:34;13.50;74.00
79049;DHT22;68680;50.764;6.120;2023-04-22T07:05:02;13.60;73.30
79049;DHT22;68680;50.764;6.120;2023-04-22T07:07:28;13.60;73.20
79049;DHT22;68680;50.764;6.120;2023-04-22T07:09:55;13.70;72.90
79049;DHT22;68680;50.764;6.120;2023-04-22T07:12:21;13.80;72.30
79049;DHT22;68680;50.764;6.120;2023-04-22T07:14:47;13.90;73.10
79049;DHT22;68680;50.764;6.120;2023-04-22T07:17:13;14.10;71.70
79049;DHT22;68680;50.764;6.120;2023-04-22T07:19:42;14.20;71.80
79049;DHT22;68680;50.764;6.120;2023-04-22T07:22:12;14.30;70.00
79049;DHT22;68680;50.764;6.120;2023-04-22T07:24:37;14.40;69.90
79049;DHT22;68680;50.764;6.120;2023-04-22T07:27:03;14.40;70.60
79049;DHT22;68680;50.764;6.120;2023-04-22T07:29:29;14.40;70.00
79049;DHT22;68680;50.764;6.120;2023-04-22T07:31:54;14.50;70.90
79049;DHT22;68680;50.764;6.120;2023-04-22T07:34:20;14.50;71.70
79049;DHT22;68680;50.764;6.120;2023-04-22T07:36:49;14.60;70.20
79049;DHT22;68680;50.764;6.120;2023-04-22T07:39:16;14.70;70.60
79049;DHT22;68680;50.764;6.120;2023-04-22T07:41:42;14.90;69.60
79049;DHT22;68680;50.764;6.120;2023-04-22T07:44:07;15.00;69.00
79049;DHT22;68680;50.764;6.120;2023-04-22T07:46:33;15.10;68.40
79049;DHT22;68680;50.764;6.120;2023-04-22T07:48:59;15.20;68.00
79049;DHT22;68680;50.764;6.120;2023-04-22T07:51:25;15.30;68.00
79049;DHT22;68680;50.764;6.120;2023-04-22T07:53:50;15.20;68.80
79049;DHT22;68680;50.764;6.120;2023-04-22T07:56:17;15.10;69.30
79049;DHT22;68680;50.764;6.120;2023-04-22T07:58:43;15.10;69.30
79049;DHT22;68680;50.764;6.120;2023-04-22T08:01:09;15.10;69.70
79049;DHT22;68680;50.764;6.120;2023-04-22T08:03:34;15.10;68.90
79049;DHT22;68680;50.764;6.120;2023-04-22T08:06:00;15.20;69.70
79049;DHT22;68680;50.764;6.120;2023-04-22T08:08:26;15.30;69.40
79049;DHT22;68680;50.764;6.120;2023-04-22T08:10:51;15.40;69.10
79049;DHT22;68680;50.764;6.120;2023-04-22T08:13:18;15.60;68.90
79049;DHT22;68680;50.764;6.120;2023-04-22T08:15:44;15.60;67.70
79049;DHT22;68680;50.764;6.120;2023-04-22T08:18:09;15.70;68.90
79049;DHT22;68680;50.764;6.120;2023-04-22T08:20:35;15.70;67.60
79049;DHT22;68680;50.764;6.120;2023-04-22T08:23:01;15.80;67.10
79049;DHT22;68680;50.764;6.120;2023-04-22T08:25:27;15.80;66.70
79049;DHT22;68680;50.764;6.120;2023-04-22T08:27:52;15.80;67.60
79049;DHT22;68680;50.764;6.120;2023-04-22T08:30:19;15.80;68.20
79049;DHT22;68680;50.764;6.120;2023-04-22T08:32:45;15.90;67.40
79049;DHT22;68680;50.764;6.120;2023-04-22T08:35:11;16.00;67.70
79049;DHT22;68680;50.764;6.120;2023-04-22T08:37:39;16.10;68.00
79049;DHT22;68680;50.764;6.120;2023-04-22T08:40:05;16.30;64.50
79049;DHT22;68680;50.764;6.120;2023-04-22T08:42:31;16.30;67.30
79049;DHT22;68680;50.764;6.120;2023-04-22T08:44:57;16.30;65.10
79049;DHT22;68680;50.764;6.120;2023-04-22T08:47:25;16.50;64.50
79049;DHT22;68680;50.764;6.120;2023-04-22T08:49:53;16.50;63.80
79049;DHT22;68680;50.764;6.120;2023-04-22T08:52:22;16.40;64.50
79049;DHT22;68680;50.764;6.120;2023-04-22T08:54:51;16.40;65.60
79049;DHT22;68680;50.764;6.120;2023-04-22T08:57:16;16.50;65.80
79049;DHT22;68680;50.764;6.120;2023-04-22T08:59:44;16.60;64.30
79049;DHT22;68680;50.764;6.120;2023-04-22T09:02:12;16.70;64.50
79049;DHT22;68680;50.764;6.120;2023-04-22T09:04:42;16.80;64.20
79049;DHT22;68680;50.764;6.120;2023-04-22T09:07:10;17.00;63.60
79049;DHT22;68680;50.764;6.120;2023-04-22T09:09:40;17.00;65.20
79049;DHT22;68680;50.764;6.120;2023-04-22T09:12:07;17.10;62.90
79049;DHT22;68680;50.764;6.120;2023-04-22T09:14:33;17.30;62.50
79049;DHT22;68680;50.764;6.120;2023-04-22T09:16:59;17.60;61.40
79049;DHT22;68680;50.764;6.120;2023-04-22T09:19:27;17.70;61.50
79049;DHT22;68680;50.764;6.120;2023-04-22T09:21:55;17.80;60.80
79049;DHT22;68680;50.764;6.120;2023-04-22T09:24:22;17.90;60.80
79049;DHT22;68680;50.764;6.120;2023-04-22T09:26:47;18.00;59.10
79049;DHT22;68680;50.764;6.120;2023-04-22T09:29:14;17.90;59.50
79049;DHT22;68680;50.764;6.120;2023-04-22T09:31:40;18.00;59.80
79049;DHT22;68680;50.764;6.120;2023-04-22T09:34:05;17.90;57.60
79049;DHT22;68680;50.764;6.120;2023-04-22T09:36:32;17.70;60.40
79049;DHT22;68680;50.764;6.120;2023-04-22T09:39:00;17.70;60.50
79049;DHT22;68680;50.764;6.120;2023-04-22T09:41:27;17.80;60.00
79049;DHT22;68680;50.764;6.120;2023-04-22T09:43:53;17.80;61.90
79049;DHT22;68680;50.764;6.120;2023-04-22T09:46:21;17.80;59.30
79049;DHT22;68680;50.764;6.120;2023-04-22T09:48:47;17.90;59.10
79049;DHT22;68680;50.764;6.120;2023-04-22T09:51:14;17.90;58.80
79049;DHT22;68680;50.764;6.120;2023-04-22T09:53:40;17.90;58.40
79049;DHT22;68680;50.764;6.120;2023-04-22T09:56:07;17.90;58.40
79049;DHT22;68680;50.764;6.120;2023-04-22T09:58:37;17.90;59.40
79049;DHT22;68680;50.764;6.120;2023-04-22T10:01:03;18.00;59.00
79049;DHT22;68680;50.764;6.120;2023-04-22T10:03:29;18.20;57.90
79049;DHT22;68680;50.764;6.120;2023-04-22T10:05:55;18.30;57.20
79049;DHT22;68680;50.764;6.120;2023-04-22T10:08:21;18.40;56.40
79049;DHT22;68680;50.764;6.120;2023-04-22T10:10:46;18.30;56.40
79049;DHT22;68680;50.764;6.120;2023-04-22T10:13:13;18.30;56.40
79049;DHT22;68680;50.764;6.120;2023-04-22T10:15:40;18.30;56.20
79049;DHT22;68680;50.764;6.120;2023-04-22T10:18:10;18.40;55.90
79049;DHT22;68680;50.764;6.120;2023-04-22T10:20:39;18.40;56.50
79049;DHT22;68680;50.764;6.120;2023-04-22T10:23:14;18.50;57.20
79049;DHT22;68680;50.764;6.120;2023-04-22T10:25:42;18.50;58.20
79049;DHT22;68680;50.764;6.120;2023-04-22T10:28:11;18.50;56.80
79049;DHT22;68680;50.764;6.120;2023-04-22T10:30:41;18.40;57.70
79049;DHT22;68680;50.764;6.120;2023-04-22T10:36:05;18.50;57.80
79049;DHT22;68680;50.764;6.120;2023-04-22T10:38:35;18.80;56.90
79049;DHT22;68680;50.764;6.120;2023-04-22T10:41:01;19.10;56.20
79049;DHT22;68680;50.764;6.120;2023-04-22T10:43:40;19.20;55.60
79049;DHT22;68680;50.764;6.120;2023-04-22T10:46:07;18.90;56.50
79049;DHT22;68680;50.764;6.120;2023-04-22T10:49:11;18.80;57.50
79049;DHT22;68680;50.764;6.120;2023-04-22T10:51:38;18.60;57.50
79049;DHT22;68680;50.764;6.120;2023-04-22T10:54:04;18.60;57.90
79049;DHT22;68680;50.764;6.120;2023-04-22T10:56:30;18.70;57.30
79049;DHT22;68680;50.764;6.120;2023-04-22T10:58:57;18.80;58.10
79049;DHT22;68680;50.764;6.120;2023-04-22T11:01:23;18.80;57.80
79049;DHT22;68680;50.764;6.120;2023-04-22T11:03:51;19.00;57.00
79049;DHT22;68680;50.764;6.120;2023-04-22T11:06:18;19.00;58.70
79049;DHT22;68680;50.764;6.120;2023-04-22T11:08:45;19.10;57.10
79049;DHT22;68680;50.764;6.120;2023-04-22T11:11:11;19.20;56.10
79049;DHT22;68680;50.764;6.120;2023-04-22T11:13:37;19.00;55.60
79049;DHT22;68680;50.764;6.120;2023-04-22T11:16:08;18.90;56.00
79049;DHT22;68680;50.764;6.120;2023-04-22T11:18:34;18.70;56.80
79049;DHT22;68680;50.764;6.120;2023-04-22T11:21:02;18.70;58.30
79049;DHT22;68680;50.764;6.120;2023-04-22T11:23:28;18.80;56.00
79049;DHT22;68680;50.764;6.120;2023-04-22T11:25:55;18.90;56.10
79049;DHT22;68680;50.764;6.120;2023-04-22T11:28:21;18.90;55.50
79049;DHT22;68680;50.764;6.120;2023-04-22T11:30:47;18.90;56.20
79049;DHT22;68680;50.764;6.120;2023-04-22T11:33:15;18.90;55.80
79049;DHT22;68680;50.764;6.120;2023-04-22T11:35:40;18.80;57.50
79049;DHT22;68680;50.764;6.120;2023-04-22T11:38:06;18.70;56.20
79049;DHT22;68680;50.764;6.120;2023-04-22T11:40:33;18.50;56.80
79049;DHT22;68680;50.764;6.120;2023-04-22T11:43:00;18.40;58.40
79049;DHT22;68680;50.764;6.120;2023-04-22T11:45:27;18.40;57.20
79049;DHT22;68680;50.764;6.120;2023-04-22T11:47:54;18.40;58.30
79049;DHT22;68680;50.764;6.120;2023-04-22T11:50:22;18.20;57.70
79049;DHT22;68680;50.764;6.120;2023-04-22T11:52:50;18.10;59.30
79049;DHT22;68680;50.764;6.120;2023-04-22T11:55:19;18.00;58.80
79049;DHT22;68680;50.764;6.120;2023-04-22T11:57:51;17.80;59.60
79049;DHT22;68680;50.764;6.120;2023-04-22T12:00:18;17.70;60.00
79049;DHT22;68680;50.764;6.120;2023-04-22T12:02:53;17.60;61.00
79049;DHT22;68680;50.764;6.120;2023-04-22T12:05:19;17.50;60.50
79049;DHT22;68680;50.764;6.120;2023-04-22T12:07:46;17.50;60.40
79049;DHT22;68680;50.764;6.120;2023-04-22T12:10:14;17.40;60.60
79049;DHT22;68680;50.764;6.120;2023-04-22T12:12:39;17.50;61.10
79049;DHT22;68680;50.764;6.120;2023-04-22T12:15:05;17.60;61.40
79049;DHT22;68680;50.764;6.120;2023-04-22T12:17:33;17.80;60.60
79049;DHT22;68680;50.764;6.120;2023-04-22T12:19:58;17.90;60.40
79049;DHT22;68680;50.764;6.120;2023-04-22T12:22:24;18.00;61.10
79049;DHT22;68680;50.764;6.120;2023-04-22T12:24:51;18.10;61.00
79049;DHT22;68680;50.764;6.120;2023-04-22T12:27:17;18.10;61.50
79049;DHT22;68680;50.764;6.120;2023-04-22T12:29:49;18.00;60.40
79049;DHT22;68680;50.764;6.120;2023-04-22T12:32:16;18.20;59.70
79049;DHT22;68680;50.764;6.120;2023-04-22T12:34:41;18.30;59.50
79049;DHT22;68680;50.764;6.120;2023-04-22T12:37:07;18.20;59.50
79049;DHT22;68680;50.764;6.120;2023-04-22T12:39:33;18.10;59.50
79049;DHT22;68680;50.764;6.120;2023-04-22T12:42:00;18.10;61.10
79049;DHT22;68680;50.764;6.120;2023-04-22T12:44:25;18.50;60.00
79049;DHT22;68680;50.764;6.120;2023-04-22T12:46:51;19.00;58.00
79049;DHT22;68680;50.764;6.120;2023-04-22T12:49:16;19.30;57.20
79049;DHT22;68680;50.764;6.120;2023-04-22T12:51:42;19.30;57.20
79049;DHT22;68680;50.764;6.120;2023-04-22T12:54:08;19.20;57.20
79049;DHT22;68680;50.764;6.120;2023-04-22T12:56:33;19.10;56.30
79049;DHT22;68680;50.764;6.120;2023-04-22T12:59:00;19.00;56.60
79049;DHT22;68680;50.764;6.120;2023-04-22T13:01:26;18.70;59.20
79049;DHT22;68680;50.764;6.120;2023-04-22T13:03:51;18.40;59.80
79049;DHT22;68680;50.764;6.120;2023-04-22T13:06:17;18.10;59.10
79049;DHT22;68680;50.764;6.120;2023-04-22T13:08:43;17.80;60.00
79049;DHT22;68680;50.764;6.120;2023-04-22T13:11:08;17.60;63.50
79049;DHT22;68680;50.764;6.120;2023-04-22T13:13:34;17.40;65.80
79049;DHT22;68680;50.764;6.120;2023-04-22T13:16:01;17.10;65.60
79049;DHT22;68680;50.764;6.120;2023-04-22T13:18:27;16.90;67.10
79049;DHT22;68680;50.764;6.120;2023-04-22T13:20:52;16.70;68.60
79049;DHT22;68680;50.764;6.120;2023-04-22T13:23:18;16.70;68.00
79049;DHT22;68680;50.764;6.120;2023-04-22T13:25:44;16.60;68.50
79049;DHT22;68680;50.764;6.120;2023-04-22T13:28:09;16.60;67.60
79049;DHT22;68680;50.764;6.120;2023-04-22T13:30:35;16.60;66.70
79049;DHT22;68680;50.764;6.120;2023-04-22T13:33:02;16.60;67.40
79049;DHT22;68680;50.764;6.120;2023-04-22T13:35:27;16.50;67.60
79049;DHT22;68680;50.764;6.120;2023-04-22T13:37:53;16.40;68.50
79049;DHT22;68680;50.764;6.120;2023-04-22T13:40:19;16.40;68.10
79049;DHT22;68680;50.764;6.120;2023-04-22T13:42:44;16.30;67.60
79049;DHT22;68680;50.764;6.120;2023-04-22T13:45:10;16.30;67.70
79049;DHT22;68680;50.764;6.120;2023-04-22T13:47:36;16.30;68.10
79049;DHT22;68680;50.764;6.120;2023-04-22T13:50:03;16.30;68.40
79049;DHT22;68680;50.764;6.120;2023-04-22T13:52:29;16.30;69.20
79049;DHT22;68680;50.764;6.120;2023-04-22T13:54:55;16.30;69.60
79049;DHT22;68680;50.764;6.120;2023-04-22T13:57:21;16.20;69.30
79049;DHT22;68680;50.764;6.120;2023-04-22T13:59:47;16.30;70.70
79049;DHT22;68680;50.764;6.120;2023-04-22T14:02:13;16.40;70.90
79049;DHT22;68680;50.764;6.120;2023-04-22T14:04:39;16.40;69.60
79049;DHT22;68680;50.764;6.120;2023-04-22T14:07:06;16.50;69.80
79049;DHT22;68680;50.764;6.120;2023-04-22T14:09:32;16.50;68.40
79049;DHT22;68680;50.764;6.120;2023-04-22T14:11:58;16.60;68.80
79049;DHT22;68680;50.764;6.120;2023-04-22T14:14:24;16.70;68.30
79049;DHT22;68680;50.764;6.120;2023-04-22T14:16:50;16.80;67.90
79049;DHT22;68680;50.764;6.120;2023-04-22T14:19:15;16.80;67.80
79049;DHT22;68680;50.764;6.120;2023-04-22T14:21:41;16.80;68.00
79049;DHT22;68680;50.764;6.120;2023-04-22T14:24:08;16.90;67.70
79049;DHT22;68680;50.764;6.120;2023-04-22T14:26:34;16.90;68.60
79049;DHT22;68680;50.764;6.120;2023-04-22T14:28:59;17.00;68.40
79049;DHT22;68680;50.764;6.120;2023-04-22T14:31:25;17.10;68.10
79049;DHT22;68680;50.764;6.120;2023-04-22T14:33:51;17.20;67.00
79049;DHT22;68680;50.764;6.120;2023-04-22T14:36:16;17.20;67.70
79049;DHT22;68680;50.764;6.120;2023-04-22T14:38:42;17.10;68.20
79049;DHT22;68680;50.764;6.120;2023-04-22T14:41:09;17.00;68.10
79049;DHT22;68680;50.764;6.120;2023-04-22T14:43:35;17.00;68.80
79049;DHT22;68680;50.764;6.120;2023-04-22T14:46:00;17.00;68.00
79049;DHT22;68680;50.764;6.120;2023-04-22T14:48:26;16.80;67.80
79049;DHT22;68680;50.764;6.120;2023-04-22T14:50:51;16.80;69.20
79049;DHT22;68680;50.764;6.120;2023-04-22T14:53:17;16.80;68.90
79049;DHT22;68680;50.764;6.120;2023-04-22T14:55:44;16.80;68.50
79049;DHT22;68680;50.764;6.120;2023-04-22T14:58:11;16.60;69.60
79049;DHT22;68680;50.764;6.120;2023-04-22T15:00:37;16.70;70.50
79049;DHT22;68680;50.764;6.120;2023-04-22T15:03:03;16.60;70.70
79049;DHT22;68680;50.764;6.120;2023-04-22T15:05:29;16.50;72.40
79049;DHT22;68680;50.764;6.120;2023-04-22T15:07:54;16.30;72.10
79049;DHT22;68680;50.764;6.120;2023-04-22T15:10:20;16.00;75.20
79049;DHT22;68680;50.764;6.120;2023-04-22T15:12:46;15.70;77.50
79049;DHT22;68680;50.764;6.120;2023-04-22T15:15:13;15.40;81.40
79049;DHT22;68680;50.764;6.120;2023-04-22T15:17:38;15.10;82.90
79049;DHT22;68680;50.764;6.120;2023-04-22T15:20:04;14.80;85.40
79049;DHT22;68680;50.764;6.120;2023-04-22T15:22:31;14.80;86.60
79049;DHT22;68680;50.764;6.120;2023-04-22T15:24:56;14.70;89.10
79049;DHT22;68680;50.764;6.120;2023-04-22T15:27:22;14.60;89.70
79049;DHT22;68680;50.764;6.120;2023-04-22T15:29:48;14.50;90.00
79049;DHT22;68680;50.764;6.120;2023-04-22T15:32:15;14.40;89.40
79049;DHT22;68680;50.764;6.120;2023-04-22T15:34:40;14.30;89.60